FMEP/ZSE METAR and TAF weather

Enter ICAO airport designator
Station Type Date Time Source
FMEP METAR 2019/08/21 22:30 UTC NOAA

FMEP 212230Z AUTO 06004KT 9999 OVC047 23/17 Q1020


Station Type Date Time Source
FMEP Decoded METAR 2019/08/21 22:30 UTC NOAA

Station name not available
Aug 21, 2019 - 06:30 PM EDT / 2019.08.21 2230 UTC
Wind: from the ENE (060 degrees) at 5 MPH (4 KT):0
Visibility: greater than 7 mile(s):0
Sky conditions: overcast
Temperature: 73 F (23 C)
Dew Point: 62 F (17 C)
Relative Humidity: 68%
Pressure (altimeter): 30.12 in. Hg (1020 hPa)
ob: FMEP 212230Z AUTO 06004KT 9999 OVC047 23/17 Q1020
cycle: 22

Station Type Date Time Source
FMEP TAF 2019/05/21 06:00 UTC NOAA

TAF FMEP 210500Z 2106/2115 18005KT 9999 FEW023 BKN210

Example: see airport list